Terminal Aerodrome Forecast
Issued by NWS Melbourne, FL

Current Version | Previous Version | Text Only | Print | Product List | Glossary On
Versions: 1 2 3 4 5 6 7 8 9 10 11 12 13 14 15 16
000
FTUS42 KMLB 092323
TAFMLB
TAF
KMLB 092323Z 1000/1024 35011G18KT P6SM FEW035 BKN250
     FM100600 36010KT P6SM SCT040 BKN250
     FM101400 03013G22KT P6SM BKN040=

USA.gov is the U.S. government's official web portal to all federal, state and local government web resources and services.